sensor_id;sensor_type;location;lat;lon;timestamp;P1;durP1;ratioP1;P2;durP2;ratioP2
5833;SDS011;2943;48.012;10.968;2023-06-22T00:00:14;12.70;;;5.80;;
5833;SDS011;2943;48.012;10.968;2023-06-22T00:02:42;11.47;;;5.40;;
5833;SDS011;2943;48.012;10.968;2023-06-22T00:05:08;12.10;;;4.90;;
5833;SDS011;2943;48.012;10.968;2023-06-22T00:07:35;10.50;;;5.20;;
5833;SDS011;2943;48.012;10.968;2023-06-22T00:10:02;15.13;;;5.77;;
5833;SDS011;2943;48.012;10.968;2023-06-22T00:12:30;13.37;;;5.13;;
5833;SDS011;2943;48.012;10.968;2023-06-22T00:14:58;13.57;;;5.77;;
5833;SDS011;2943;48.012;10.968;2023-06-22T00:17:25;12.37;;;5.40;;
5833;SDS011;2943;48.012;10.968;2023-06-22T00:19:52;9.60;;;5.43;;
5833;SDS011;2943;48.012;10.968;2023-06-22T00:22:20;11.37;;;4.87;;
5833;SDS011;2943;48.012;10.968;2023-06-22T00:24:53;13.10;;;4.47;;
5833;SDS011;2943;48.012;10.968;2023-06-22T00:27:21;9.70;;;5.00;;
5833;SDS011;2943;48.012;10.968;2023-06-22T00:29:48;13.70;;;5.50;;
5833;SDS011;2943;48.012;10.968;2023-06-22T00:32:17;9.97;;;4.33;;
5833;SDS011;2943;48.012;10.968;2023-06-22T00:34:44;11.50;;;4.63;;
5833;SDS011;2943;48.012;10.968;2023-06-22T00:37:11;16.47;;;5.50;;
5833;SDS011;2943;48.012;10.968;2023-06-22T00:39:38;11.53;;;5.30;;
5833;SDS011;2943;48.012;10.968;2023-06-22T00:42:05;9.90;;;4.60;;
5833;SDS011;2943;48.012;10.968;2023-06-22T00:44:32;11.43;;;5.03;;
5833;SDS011;2943;48.012;10.968;2023-06-22T00:46:59;12.07;;;4.63;;
5833;SDS011;2943;48.012;10.968;2023-06-22T00:49:29;12.83;;;5.37;;
5833;SDS011;2943;48.012;10.968;2023-06-22T00:51:57;10.37;;;5.23;;
5833;SDS011;2943;48.012;10.968;2023-06-22T00:54:27;18.57;;;6.40;;
5833;SDS011;2943;48.012;10.968;2023-06-22T00:56:54;14.63;;;4.93;;
5833;SDS011;2943;48.012;10.968;2023-06-22T00:59:23;14.13;;;5.80;;
5833;SDS011;2943;48.012;10.968;2023-06-22T01:01:53;15.47;;;5.87;;
5833;SDS011;2943;48.012;10.968;2023-06-22T01:04:21;6.37;;;4.40;;
5833;SDS011;2943;48.012;10.968;2023-06-22T01:06:53;7.30;;;4.70;;
5833;SDS011;2943;48.012;10.968;2023-06-22T01:09:39;15.50;;;5.13;;
5833;SDS011;2943;48.012;10.968;2023-06-22T01:12:12;11.77;;;6.00;;
5833;SDS011;2943;48.012;10.968;2023-06-22T01:14:43;10.20;;;5.73;;
5833;SDS011;2943;48.012;10.968;2023-06-22T01:17:18;10.57;;;5.63;;
5833;SDS011;2943;48.012;10.968;2023-06-22T01:19:46;9.00;;;5.30;;
5833;SDS011;2943;48.012;10.968;2023-06-22T01:22:19;9.53;;;4.70;;
5833;SDS011;2943;48.012;10.968;2023-06-22T01:24:51;11.73;;;5.20;;
5833;SDS011;2943;48.012;10.968;2023-06-22T01:27:32;16.00;;;5.73;;
5833;SDS011;2943;48.012;10.968;2023-06-22T01:30:08;11.10;;;5.37;;
5833;SDS011;2943;48.012;10.968;2023-06-22T01:32:37;10.57;;;5.80;;
5833;SDS011;2943;48.012;10.968;2023-06-22T01:35:06;13.17;;;5.30;;
5833;SDS011;2943;48.012;10.968;2023-06-22T01:37:34;10.00;;;4.93;;
5833;SDS011;2943;48.012;10.968;2023-06-22T01:40:04;13.47;;;5.00;;
5833;SDS011;2943;48.012;10.968;2023-06-22T01:42:33;11.87;;;5.80;;
5833;SDS011;2943;48.012;10.968;2023-06-22T01:45:01;11.90;;;5.90;;
5833;SDS011;2943;48.012;10.968;2023-06-22T01:47:30;10.80;;;5.70;;
5833;SDS011;2943;48.012;10.968;2023-06-22T01:50:00;11.90;;;5.20;;
5833;SDS011;2943;48.012;10.968;2023-06-22T01:52:28;11.97;;;5.07;;
5833;SDS011;2943;48.012;10.968;2023-06-22T01:54:55;9.97;;;6.17;;
5833;SDS011;2943;48.012;10.968;2023-06-22T01:57:23;20.63;;;6.17;;
5833;SDS011;2943;48.012;10.968;2023-06-22T01:59:52;14.27;;;6.10;;
5833;SDS011;2943;48.012;10.968;2023-06-22T02:02:30;12.20;;;6.53;;
5833;SDS011;2943;48.012;10.968;2023-06-22T02:05:03;10.17;;;5.50;;
5833;SDS011;2943;48.012;10.968;2023-06-22T02:07:36;14.60;;;6.63;;
5833;SDS011;2943;48.012;10.968;2023-06-22T02:10:10;17.63;;;5.50;;
5833;SDS011;2943;48.012;10.968;2023-06-22T02:12:40;12.20;;;6.10;;
5833;SDS011;2943;48.012;10.968;2023-06-22T02:15:09;17.80;;;7.83;;
5833;SDS011;2943;48.012;10.968;2023-06-22T02:17:39;14.93;;;6.40;;
5833;SDS011;2943;48.012;10.968;2023-06-22T02:20:11;17.27;;;6.10;;
5833;SDS011;2943;48.012;10.968;2023-06-22T02:22:39;12.73;;;6.20;;
5833;SDS011;2943;48.012;10.968;2023-06-22T02:25:06;13.63;;;6.27;;
5833;SDS011;2943;48.012;10.968;2023-06-22T02:27:33;16.87;;;6.53;;
5833;SDS011;2943;48.012;10.968;2023-06-22T02:30:00;18.20;;;7.13;;
5833;SDS011;2943;48.012;10.968;2023-06-22T02:32:27;17.13;;;6.60;;
5833;SDS011;2943;48.012;10.968;2023-06-22T02:34:55;8.60;;;5.87;;
5833;SDS011;2943;48.012;10.968;2023-06-22T02:37:22;11.90;;;6.50;;
5833;SDS011;2943;48.012;10.968;2023-06-22T02:39:50;10.50;;;5.60;;
5833;SDS011;2943;48.012;10.968;2023-06-22T02:42:17;19.53;;;6.40;;
5833;SDS011;2943;48.012;10.968;2023-06-22T02:44:45;12.60;;;6.43;;
5833;SDS011;2943;48.012;10.968;2023-06-22T02:47:12;15.87;;;6.40;;
5833;SDS011;2943;48.012;10.968;2023-06-22T02:49:39;15.13;;;6.97;;
5833;SDS011;2943;48.012;10.968;2023-06-22T02:52:08;21.53;;;6.93;;
5833;SDS011;2943;48.012;10.968;2023-06-22T02:54:35;11.20;;;6.07;;
5833;SDS011;2943;48.012;10.968;2023-06-22T02:57:02;12.67;;;6.43;;
5833;SDS011;2943;48.012;10.968;2023-06-22T02:59:29;10.30;;;6.00;;
5833;SDS011;2943;48.012;10.968;2023-06-22T03:01:59;14.63;;;6.60;;
5833;SDS011;2943;48.012;10.968;2023-06-22T03:04:27;13.83;;;6.87;;
5833;SDS011;2943;48.012;10.968;2023-06-22T03:06:56;17.73;;;6.93;;
5833;SDS011;2943;48.012;10.968;2023-06-22T03:09:27;18.50;;;6.43;;
5833;SDS011;2943;48.012;10.968;2023-06-22T03:11:55;15.53;;;7.03;;
5833;SDS011;2943;48.012;10.968;2023-06-22T03:14:25;12.60;;;7.27;;
5833;SDS011;2943;48.012;10.968;2023-06-22T03:16:52;16.90;;;6.47;;
5833;SDS011;2943;48.012;10.968;2023-06-22T03:19:19;12.90;;;6.47;;
5833;SDS011;2943;48.012;10.968;2023-06-22T03:21:46;16.73;;;7.43;;
5833;SDS011;2943;48.012;10.968;2023-06-22T03:24:13;10.93;;;7.20;;
5833;SDS011;2943;48.012;10.968;2023-06-22T03:26:41;13.30;;;6.70;;
5833;SDS011;2943;48.012;10.968;2023-06-22T03:29:11;24.57;;;7.43;;
5833;SDS011;2943;48.012;10.968;2023-06-22T03:31:38;12.77;;;7.40;;
5833;SDS011;2943;48.012;10.968;2023-06-22T03:34:05;16.13;;;7.10;;
5833;SDS011;2943;48.012;10.968;2023-06-22T03:36:32;18.33;;;7.27;;
5833;SDS011;2943;48.012;10.968;2023-06-22T03:38:59;10.70;;;6.33;;
5833;SDS011;2943;48.012;10.968;2023-06-22T03:41:26;17.53;;;7.37;;
5833;SDS011;2943;48.012;10.968;2023-06-22T03:43:54;16.13;;;7.87;;
5833;SDS011;2943;48.012;10.968;2023-06-22T03:46:21;18.23;;;7.07;;
5833;SDS011;2943;48.012;10.968;2023-06-22T03:48:48;14.20;;;6.83;;
5833;SDS011;2943;48.012;10.968;2023-06-22T03:51:18;13.77;;;7.10;;
5833;SDS011;2943;48.012;10.968;2023-06-22T03:53:45;18.40;;;8.10;;
5833;SDS011;2943;48.012;10.968;2023-06-22T03:56:13;13.30;;;7.10;;
5833;SDS011;2943;48.012;10.968;2023-06-22T03:58:45;15.33;;;7.73;;
5833;SDS011;2943;48.012;10.968;2023-06-22T04:01:15;17.97;;;8.10;;
5833;SDS011;2943;48.012;10.968;2023-06-22T04:03:43;14.53;;;7.50;;
5833;SDS011;2943;48.012;10.968;2023-06-22T04:06:10;12.82;;;6.90;;
5833;SDS011;2943;48.012;10.968;2023-06-22T04:08:37;14.90;;;7.57;;
5833;SDS011;2943;48.012;10.968;2023-06-22T04:11:03;17.30;;;7.60;;
5833;SDS011;2943;48.012;10.968;2023-06-22T04:13:31;15.30;;;7.77;;
5833;SDS011;2943;48.012;10.968;2023-06-22T04:15:58;15.07;;;7.70;;
5833;SDS011;2943;48.012;10.968;2023-06-22T04:18:27;12.53;;;7.33;;
5833;SDS011;2943;48.012;10.968;2023-06-22T04:20:54;12.10;;;7.40;;
5833;SDS011;2943;48.012;10.968;2023-06-22T04:23:21;13.67;;;8.20;;
5833;SDS011;2943;48.012;10.968;2023-06-22T04:25:48;13.33;;;6.70;;
5833;SDS011;2943;48.012;10.968;2023-06-22T04:28:18;10.37;;;6.27;;
5833;SDS011;2943;48.012;10.968;2023-06-22T04:30:45;18.03;;;6.43;;
5833;SDS011;2943;48.012;10.968;2023-06-22T04:33:12;13.10;;;6.50;;
5833;SDS011;2943;48.012;10.968;2023-06-22T04:35:41;18.00;;;7.50;;
5833;SDS011;2943;48.012;10.968;2023-06-22T04:38:11;13.03;;;6.90;;
5833;SDS011;2943;48.012;10.968;2023-06-22T04:40:38;16.93;;;6.90;;
5833;SDS011;2943;48.012;10.968;2023-06-22T04:43:05;10.73;;;6.00;;
5833;SDS011;2943;48.012;10.968;2023-06-22T04:45:37;11.60;;;6.20;;
5833;SDS011;2943;48.012;10.968;2023-06-22T04:48:05;21.77;;;7.37;;
5833;SDS011;2943;48.012;10.968;2023-06-22T04:50:33;10.70;;;6.77;;
5833;SDS011;2943;48.012;10.968;2023-06-22T04:53:02;22.20;;;7.40;;
5833;SDS011;2943;48.012;10.968;2023-06-22T04:55:30;14.23;;;7.30;;
5833;SDS011;2943;48.012;10.968;2023-06-22T04:57:57;11.80;;;6.47;;
5833;SDS011;2943;48.012;10.968;2023-06-22T05:00:30;12.07;;;6.40;;
5833;SDS011;2943;48.012;10.968;2023-06-22T05:02:57;18.23;;;7.50;;
5833;SDS011;2943;48.012;10.968;2023-06-22T05:05:24;8.20;;;6.00;;
5833;SDS011;2943;48.012;10.968;2023-06-22T05:07:51;13.67;;;5.90;;
5833;SDS011;2943;48.012;10.968;2023-06-22T05:10:21;23.13;;;6.70;;
5833;SDS011;2943;48.012;10.968;2023-06-22T05:12:48;10.67;;;6.60;;
5833;SDS011;2943;48.012;10.968;2023-06-22T05:15:15;14.00;;;7.00;;
5833;SDS011;2943;48.012;10.968;2023-06-22T05:17:44;11.20;;;7.13;;
5833;SDS011;2943;48.012;10.968;2023-06-22T05:20:11;11.97;;;6.53;;
5833;SDS011;2943;48.012;10.968;2023-06-22T05:22:39;10.70;;;6.37;;
5833;SDS011;2943;48.012;10.968;2023-06-22T05:25:08;14.43;;;6.57;;
5833;SDS011;2943;48.012;10.968;2023-06-22T05:27:37;11.10;;;6.90;;
5833;SDS011;2943;48.012;10.968;2023-06-22T05:30:05;11.63;;;7.40;;
5833;SDS011;2943;48.012;10.968;2023-06-22T05:32:33;12.47;;;7.13;;
5833;SDS011;2943;48.012;10.968;2023-06-22T05:35:00;14.63;;;7.13;;
5833;SDS011;2943;48.012;10.968;2023-06-22T05:37:28;12.77;;;7.53;;
5833;SDS011;2943;48.012;10.968;2023-06-22T05:39:55;11.27;;;7.43;;
5833;SDS011;2943;48.012;10.968;2023-06-22T05:42:22;14.47;;;7.73;;
5833;SDS011;2943;48.012;10.968;2023-06-22T05:44:52;19.80;;;7.70;;
5833;SDS011;2943;48.012;10.968;2023-06-22T05:47:19;12.90;;;7.13;;
5833;SDS011;2943;48.012;10.968;2023-06-22T05:49:47;16.57;;;7.33;;
5833;SDS011;2943;48.012;10.968;2023-06-22T05:52:14;9.40;;;6.57;;
5833;SDS011;2943;48.012;10.968;2023-06-22T05:54:41;8.83;;;6.80;;
5833;SDS011;2943;48.012;10.968;2023-06-22T05:57:09;15.40;;;7.53;;
5833;SDS011;2943;48.012;10.968;2023-06-22T05:59:36;18.63;;;7.30;;
5833;SDS011;2943;48.012;10.968;2023-06-22T06:02:04;11.43;;;7.47;;
5833;SDS011;2943;48.012;10.968;2023-06-22T06:04:32;10.95;;;5.70;;
5833;SDS011;2943;48.012;10.968;2023-06-22T06:06:59;16.08;;;8.07;;
5833;SDS011;2943;48.012;10.968;2023-06-22T06:09:26;13.27;;;7.67;;
5833;SDS011;2943;48.012;10.968;2023-06-22T06:11:53;13.90;;;7.07;;
5833;SDS011;2943;48.012;10.968;2023-06-22T06:14:20;19.70;;;7.07;;
5833;SDS011;2943;48.012;10.968;2023-06-22T06:16:47;14.13;;;8.20;;
5833;SDS011;2943;48.012;10.968;2023-06-22T06:19:16;13.60;;;7.63;;
5833;SDS011;2943;48.012;10.968;2023-06-22T06:21:43;13.77;;;7.53;;
5833;SDS011;2943;48.012;10.968;2023-06-22T06:24:11;22.13;;;8.40;;
5833;SDS011;2943;48.012;10.968;2023-06-22T06:26:38;10.47;;;7.33;;
5833;SDS011;2943;48.012;10.968;2023-06-22T06:29:05;14.70;;;7.80;;
5833;SDS011;2943;48.012;10.968;2023-06-22T06:31:32;18.60;;;9.10;;
5833;SDS011;2943;48.012;10.968;2023-06-22T06:33:59;13.90;;;8.27;;
5833;SDS011;2943;48.012;10.968;2023-06-22T06:36:27;13.23;;;7.93;;
5833;SDS011;2943;48.012;10.968;2023-06-22T06:38:54;17.93;;;9.00;;
5833;SDS011;2943;48.012;10.968;2023-06-22T06:41:22;15.80;;;7.80;;
5833;SDS011;2943;48.012;10.968;2023-06-22T06:43:49;18.87;;;9.20;;
5833;SDS011;2943;48.012;10.968;2023-06-22T06:46:17;17.83;;;8.50;;
5833;SDS011;2943;48.012;10.968;2023-06-22T06:48:44;15.93;;;7.73;;
5833;SDS011;2943;48.012;10.968;2023-06-22T06:51:11;15.67;;;7.60;;
5833;SDS011;2943;48.012;10.968;2023-06-22T06:53:39;13.50;;;8.10;;
5833;SDS011;2943;48.012;10.968;2023-06-22T06:56:06;17.73;;;7.20;;
5833;SDS011;2943;48.012;10.968;2023-06-22T06:58:35;30.77;;;9.80;;
5833;SDS011;2943;48.012;10.968;2023-06-22T07:01:02;14.70;;;8.10;;
5833;SDS011;2943;48.012;10.968;2023-06-22T07:03:29;22.33;;;7.40;;
5833;SDS011;2943;48.012;10.968;2023-06-22T07:05:58;13.20;;;7.30;;
5833;SDS011;2943;48.012;10.968;2023-06-22T07:08:25;12.70;;;8.10;;
5833;SDS011;2943;48.012;10.968;2023-06-22T07:10:53;16.60;;;8.40;;
5833;SDS011;2943;48.012;10.968;2023-06-22T07:13:20;10.57;;;6.70;;
5833;SDS011;2943;48.012;10.968;2023-06-22T07:15:47;13.80;;;7.10;;
5833;SDS011;2943;48.012;10.968;2023-06-22T07:18:17;18.10;;;7.90;;
5833;SDS011;2943;48.012;10.968;2023-06-22T07:20:44;16.83;;;7.93;;
5833;SDS011;2943;48.012;10.968;2023-06-22T07:23:11;17.93;;;7.80;;
5833;SDS011;2943;48.012;10.968;2023-06-22T07:25:38;12.50;;;7.93;;
5833;SDS011;2943;48.012;10.968;2023-06-22T07:28:06;16.43;;;8.67;;
5833;SDS011;2943;48.012;10.968;2023-06-22T07:30:33;15.70;;;7.60;;
5833;SDS011;2943;48.012;10.968;2023-06-22T07:33:00;19.03;;;9.13;;
5833;SDS011;2943;48.012;10.968;2023-06-22T07:35:29;16.37;;;7.93;;
5833;SDS011;2943;48.012;10.968;2023-06-22T07:37:56;12.80;;;7.77;;
5833;SDS011;2943;48.012;10.968;2023-06-22T07:40:23;18.70;;;9.10;;
5833;SDS011;2943;48.012;10.968;2023-06-22T07:42:50;24.30;;;8.70;;
5833;SDS011;2943;48.012;10.968;2023-06-22T07:45:20;25.17;;;8.50;;
5833;SDS011;2943;48.012;10.968;2023-06-22T07:47:47;13.40;;;8.30;;
5833;SDS011;2943;48.012;10.968;2023-06-22T07:50:13;16.13;;;8.33;;
5833;SDS011;2943;48.012;10.968;2023-06-22T07:52:40;19.00;;;8.83;;
5833;SDS011;2943;48.012;10.968;2023-06-22T07:55:08;18.10;;;8.33;;
5833;SDS011;2943;48.012;10.968;2023-06-22T07:57:37;18.63;;;8.40;;
5833;SDS011;2943;48.012;10.968;2023-06-22T08:00:07;14.10;;;8.20;;
5833;SDS011;2943;48.012;10.968;2023-06-22T08:02:40;16.57;;;8.43;;
5833;SDS011;2943;48.012;10.968;2023-06-22T08:05:07;13.53;;;8.70;;
5833;SDS011;2943;48.012;10.968;2023-06-22T08:07:36;26.97;;;8.93;;
5833;SDS011;2943;48.012;10.968;2023-06-22T08:10:04;25.47;;;8.53;;
5833;SDS011;2943;48.012;10.968;2023-06-22T08:12:31;13.30;;;7.90;;
5833;SDS011;2943;48.012;10.968;2023-06-22T08:14:58;17.90;;;9.20;;
5833;SDS011;2943;48.012;10.968;2023-06-22T08:17:25;16.37;;;8.27;;
5833;SDS011;2943;48.012;10.968;2023-06-22T08:19:54;19.33;;;9.10;;
5833;SDS011;2943;48.012;10.968;2023-06-22T08:22:21;24.43;;;9.53;;
5833;SDS011;2943;48.012;10.968;2023-06-22T08:24:48;17.87;;;8.40;;
5833;SDS011;2943;48.012;10.968;2023-06-22T08:27:15;25.20;;;8.40;;
5833;SDS011;2943;48.012;10.968;2023-06-22T08:29:46;20.60;;;8.63;;
5833;SDS011;2943;48.012;10.968;2023-06-22T08:32:13;20.07;;;9.03;;
5833;SDS011;2943;48.012;10.968;2023-06-22T08:34:40;14.77;;;9.00;;
5833;SDS011;2943;48.012;10.968;2023-06-22T08:37:09;17.73;;;8.17;;
5833;SDS011;2943;48.012;10.968;2023-06-22T08:39:36;17.67;;;9.03;;
5833;SDS011;2943;48.012;10.968;2023-06-22T08:42:04;16.70;;;8.50;;
5833;SDS011;2943;48.012;10.968;2023-06-22T08:44:32;24.30;;;8.60;;
5833;SDS011;2943;48.012;10.968;2023-06-22T08:46:59;24.27;;;8.40;;
5833;SDS011;2943;48.012;10.968;2023-06-22T08:49:26;28.43;;;8.17;;
5833;SDS011;2943;48.012;10.968;2023-06-22T08:51:53;22.50;;;8.00;;
5833;SDS011;2943;48.012;10.968;2023-06-22T08:54:23;21.43;;;8.00;;
5833;SDS011;2943;48.012;10.968;2023-06-22T08:56:50;16.50;;;8.40;;
5833;SDS011;2943;48.012;10.968;2023-06-22T08:59:17;30.20;;;8.50;;
5833;SDS011;2943;48.012;10.968;2023-06-22T09:01:43;17.43;;;8.53;;
5833;SDS011;2943;48.012;10.968;2023-06-22T09:04:13;26.30;;;8.70;;
5833;SDS011;2943;48.012;10.968;2023-06-22T09:06:42;22.60;;;9.30;;
5833;SDS011;2943;48.012;10.968;2023-06-22T09:09:12;18.43;;;8.23;;
5833;SDS011;2943;48.012;10.968;2023-06-22T09:11:40;19.90;;;8.60;;
5833;SDS011;2943;48.012;10.968;2023-06-22T09:14:07;24.53;;;8.57;;
5833;SDS011;2943;48.012;10.968;2023-06-22T09:16:34;16.90;;;8.23;;
5833;SDS011;2943;48.012;10.968;2023-06-22T09:19:03;19.40;;;9.00;;
5833;SDS011;2943;48.012;10.968;2023-06-22T09:21:30;17.23;;;8.50;;
5833;SDS011;2943;48.012;10.968;2023-06-22T09:23:57;22.00;;;9.07;;
5833;SDS011;2943;48.012;10.968;2023-06-22T09:26:26;33.60;;;9.33;;
5833;SDS011;2943;48.012;10.968;2023-06-22T09:28:54;22.60;;;7.90;;
5833;SDS011;2943;48.012;10.968;2023-06-22T09:31:21;19.43;;;9.23;;
5833;SDS011;2943;48.012;10.968;2023-06-22T09:33:50;16.77;;;8.67;;
5833;SDS011;2943;48.012;10.968;2023-06-22T09:36:18;25.13;;;9.60;;
5833;SDS011;2943;48.012;10.968;2023-06-22T09:38:45;18.37;;;9.03;;
5833;SDS011;2943;48.012;10.968;2023-06-22T09:41:12;15.30;;;8.53;;
5833;SDS011;2943;48.012;10.968;2023-06-22T09:43:42;18.70;;;8.60;;
5833;SDS011;2943;48.012;10.968;2023-06-22T09:46:10;28.00;;;10.20;;
5833;SDS011;2943;48.012;10.968;2023-06-22T09:48:37;27.80;;;9.30;;
5833;SDS011;2943;48.012;10.968;2023-06-22T09:51:04;24.47;;;8.60;;
5833;SDS011;2943;48.012;10.968;2023-06-22T09:53:31;23.60;;;8.57;;
5833;SDS011;2943;48.012;10.968;2023-06-22T09:55:59;17.80;;;8.50;;
5833;SDS011;2943;48.012;10.968;2023-06-22T09:58:26;21.90;;;8.10;;
5833;SDS011;2943;48.012;10.968;2023-06-22T10:00:53;16.75;;;9.30;;
5833;SDS011;2943;48.012;10.968;2023-06-22T10:03:22;27.10;;;9.03;;
5833;SDS011;2943;48.012;10.968;2023-06-22T10:05:48;18.40;;;9.00;;
5833;SDS011;2943;48.012;10.968;2023-06-22T10:08:16;19.07;;;8.20;;
5833;SDS011;2943;48.012;10.968;2023-06-22T10:10:42;11.50;;;7.43;;
5833;SDS011;2943;48.012;10.968;2023-06-22T10:13:10;26.83;;;9.07;;
5833;SDS011;2943;48.012;10.968;2023-06-22T10:15:37;22.85;;;8.50;;
5833;SDS011;2943;48.012;10.968;2023-06-22T10:18:04;20.15;;;9.07;;
5833;SDS011;2943;48.012;10.968;2023-06-22T10:20:33;16.95;;;7.82;;
5833;SDS011;2943;48.012;10.968;2023-06-22T10:23:00;18.83;;;7.55;;
5833;SDS011;2943;48.012;10.968;2023-06-22T10:25:26;26.23;;;7.85;;
5833;SDS011;2943;48.012;10.968;2023-06-22T10:27:54;22.92;;;8.93;;
5833;SDS011;2943;48.012;10.968;2023-06-22T10:30:21;19.58;;;9.02;;
5833;SDS011;2943;48.012;10.968;2023-06-22T10:32:48;17.00;;;8.00;;
5833;SDS011;2943;48.012;10.968;2023-06-22T10:35:18;14.90;;;8.15;;
5833;SDS011;2943;48.012;10.968;2023-06-22T10:37:46;19.70;;;8.68;;
5833;SDS011;2943;48.012;10.968;2023-06-22T10:40:15;22.40;;;8.77;;
5833;SDS011;2943;48.012;10.968;2023-06-22T10:42:43;22.92;;;8.15;;
5833;SDS011;2943;48.012;10.968;2023-06-22T10:45:11;20.25;;;8.05;;
5833;SDS011;2943;48.012;10.968;2023-06-22T10:47:38;35.35;;;8.35;;
5833;SDS011;2943;48.012;10.968;2023-06-22T10:50:07;31.45;;;8.63;;
5833;SDS011;2943;48.012;10.968;2023-06-22T10:52:34;19.38;;;8.32;;
5833;SDS011;2943;48.012;10.968;2023-06-22T10:55:03;14.95;;;7.18;;
5833;SDS011;2943;48.012;10.968;2023-06-22T10:57:30;16.55;;;8.50;;
5833;SDS011;2943;48.012;10.968;2023-06-22T10:59:57;19.00;;;7.72;;
5833;SDS011;2943;48.012;10.968;2023-06-22T11:02:24;14.07;;;7.50;;
5833;SDS011;2943;48.012;10.968;2023-06-22T11:04:53;18.25;;;8.30;;
5833;SDS011;2943;48.012;10.968;2023-06-22T11:07:20;20.38;;;8.27;;
5833;SDS011;2943;48.012;10.968;2023-06-22T11:09:47;21.90;;;8.05;;
5833;SDS011;2943;48.012;10.968;2023-06-22T11:12:15;23.40;;;9.10;;
5833;SDS011;2943;48.012;10.968;2023-06-22T11:14:42;18.05;;;8.50;;
5833;SDS011;2943;48.012;10.968;2023-06-22T11:17:09;26.08;;;9.15;;
5833;SDS011;2943;48.012;10.968;2023-06-22T11:19:36;27.40;;;8.80;;
5833;SDS011;2943;48.012;10.968;2023-06-22T11:22:03;25.10;;;7.85;;
5833;SDS011;2943;48.012;10.968;2023-06-22T11:24:30;23.63;;;7.85;;
5833;SDS011;2943;48.012;10.968;2023-06-22T11:26:57;16.55;;;7.70;;
5833;SDS011;2943;48.012;10.968;2023-06-22T11:29:26;20.13;;;8.20;;
5833;SDS011;2943;48.012;10.968;2023-06-22T11:31:53;14.70;;;7.60;;
5833;SDS011;2943;48.012;10.968;2023-06-22T11:34:20;24.80;;;8.30;;
5833;SDS011;2943;48.012;10.968;2023-06-22T11:36:47;18.38;;;7.15;;
5833;SDS011;2943;48.012;10.968;2023-06-22T11:39:14;22.98;;;7.57;;
5833;SDS011;2943;48.012;10.968;2023-06-22T11:41:41;18.48;;;7.32;;
5833;SDS011;2943;48.012;10.968;2023-06-22T11:44:08;28.00;;;8.27;;
5833;SDS011;2943;48.012;10.968;2023-06-22T11:46:36;17.05;;;7.30;;
5833;SDS011;2943;48.012;10.968;2023-06-22T11:49:03;22.05;;;8.45;;
5833;SDS011;2943;48.012;10.968;2023-06-22T11:51:30;24.45;;;8.13;;
5833;SDS011;2943;48.012;10.968;2023-06-22T11:53:57;24.02;;;8.00;;
5833;SDS011;2943;48.012;10.968;2023-06-22T11:56:24;21.25;;;8.15;;
5833;SDS011;2943;48.012;10.968;2023-06-22T11:58:52;20.83;;;8.23;;
5833;SDS011;2943;48.012;10.968;2023-06-22T12:01:19;22.50;;;7.90;;
5833;SDS011;2943;48.012;10.968;2023-06-22T12:03:48;20.67;;;8.00;;
5833;SDS011;2943;48.012;10.968;2023-06-22T12:06:16;27.38;;;8.98;;
5833;SDS011;2943;48.012;10.968;2023-06-22T12:08:43;24.58;;;8.70;;
5833;SDS011;2943;48.012;10.968;2023-06-22T12:11:11;28.52;;;8.70;;
5833;SDS011;2943;48.012;10.968;2023-06-22T12:13:38;33.25;;;7.82;;
5833;SDS011;2943;48.012;10.968;2023-06-22T12:16:04;21.15;;;8.27;;
5833;SDS011;2943;48.012;10.968;2023-06-22T12:18:32;17.42;;;7.97;;
5833;SDS011;2943;48.012;10.968;2023-06-22T12:21:00;33.08;;;8.30;;
5833;SDS011;2943;48.012;10.968;2023-06-22T12:23:27;23.83;;;8.73;;
5833;SDS011;2943;48.012;10.968;2023-06-22T12:25:54;16.42;;;8.20;;
5833;SDS011;2943;48.012;10.968;2023-06-22T12:28:21;21.50;;;8.23;;
5833;SDS011;2943;48.012;10.968;2023-06-22T12:30:48;22.25;;;7.35;;
5833;SDS011;2943;48.012;10.968;2023-06-22T12:33:15;23.00;;;7.53;;
5833;SDS011;2943;48.012;10.968;2023-06-22T12:35:42;26.77;;;8.35;;
5833;SDS011;2943;48.012;10.968;2023-06-22T12:38:11;14.85;;;7.57;;
5833;SDS011;2943;48.012;10.968;2023-06-22T12:40:38;18.90;;;7.88;;
5833;SDS011;2943;48.012;10.968;2023-06-22T12:43:05;16.48;;;7.43;;
5833;SDS011;2943;48.012;10.968;2023-06-22T12:45:32;28.80;;;8.02;;
5833;SDS011;2943;48.012;10.968;2023-06-22T12:47:59;17.88;;;7.55;;
5833;SDS011;2943;48.012;10.968;2023-06-22T12:50:26;17.42;;;7.03;;
5833;SDS011;2943;48.012;10.968;2023-06-22T12:52:53;16.58;;;7.53;;
5833;SDS011;2943;48.012;10.968;2023-06-22T12:55:21;23.75;;;7.90;;
5833;SDS011;2943;48.012;10.968;2023-06-22T12:57:48;22.52;;;7.55;;
5833;SDS011;2943;48.012;10.968;2023-06-22T13:00:15;19.77;;;8.18;;
5833;SDS011;2943;48.012;10.968;2023-06-22T13:02:43;30.42;;;8.13;;
5833;SDS011;2943;48.012;10.968;2023-06-22T13:05:10;30.33;;;8.70;;
5833;SDS011;2943;48.012;10.968;2023-06-22T13:07:37;28.38;;;7.93;;
5833;SDS011;2943;48.012;10.968;2023-06-22T13:10:04;15.20;;;8.45;;
5833;SDS011;2943;48.012;10.968;2023-06-22T13:12:33;14.27;;;7.30;;
5833;SDS011;2943;48.012;10.968;2023-06-22T13:14:59;22.67;;;7.13;;
5833;SDS011;2943;48.012;10.968;2023-06-22T13:17:28;18.15;;;7.70;;
5833;SDS011;2943;48.012;10.968;2023-06-22T13:19:54;24.52;;;7.95;;
5833;SDS011;2943;48.012;10.968;2023-06-22T13:22:25;22.85;;;8.05;;
5833;SDS011;2943;48.012;10.968;2023-06-22T13:24:54;21.17;;;7.75;;
5833;SDS011;2943;48.012;10.968;2023-06-22T13:27:21;19.85;;;7.20;;
5833;SDS011;2943;48.012;10.968;2023-06-22T13:29:49;29.45;;;7.90;;
5833;SDS011;2943;48.012;10.968;2023-06-22T13:32:16;17.42;;;7.28;;
5833;SDS011;2943;48.012;10.968;2023-06-22T13:34:43;23.45;;;7.35;;
5833;SDS011;2943;48.012;10.968;2023-06-22T13:37:10;23.17;;;7.80;;
5833;SDS011;2943;48.012;10.968;2023-06-22T13:39:37;20.15;;;6.60;;
5833;SDS011;2943;48.012;10.968;2023-06-22T13:42:04;18.25;;;6.18;;
5833;SDS011;2943;48.012;10.968;2023-06-22T13:44:31;28.38;;;7.15;;
5833;SDS011;2943;48.012;10.968;2023-06-22T13:46:59;32.75;;;7.13;;
5833;SDS011;2943;48.012;10.968;2023-06-22T13:49:26;23.95;;;6.90;;
5833;SDS011;2943;48.012;10.968;2023-06-22T13:51:53;20.30;;;7.15;;
5833;SDS011;2943;48.012;10.968;2023-06-22T13:54:20;29.55;;;7.05;;
5833;SDS011;2943;48.012;10.968;2023-06-22T13:56:46;20.75;;;6.72;;
5833;SDS011;2943;48.012;10.968;2023-06-22T13:59:13;21.75;;;5.88;;
5833;SDS011;2943;48.012;10.968;2023-06-22T14:01:40;25.40;;;6.55;;
5833;SDS011;2943;48.012;10.968;2023-06-22T14:04:09;13.02;;;5.97;;
5833;SDS011;2943;48.012;10.968;2023-06-22T14:06:37;21.58;;;7.07;;
5833;SDS011;2943;48.012;10.968;2023-06-22T14:09:04;27.85;;;7.45;;
5833;SDS011;2943;48.012;10.968;2023-06-22T14:11:32;32.05;;;7.13;;
5833;SDS011;2943;48.012;10.968;2023-06-22T14:13:58;23.40;;;7.43;;
5833;SDS011;2943;48.012;10.968;2023-06-22T14:16:25;19.88;;;7.18;;
5833;SDS011;2943;48.012;10.968;2023-06-22T14:18:52;22.48;;;5.82;;
5833;SDS011;2943;48.012;10.968;2023-06-22T14:21:20;17.13;;;6.25;;
5833;SDS011;2943;48.012;10.968;2023-06-22T14:23:47;20.73;;;6.72;;
5833;SDS011;2943;48.012;10.968;2023-06-22T14:26:15;20.10;;;5.70;;
5833;SDS011;2943;48.012;10.968;2023-06-22T14:28:43;16.92;;;5.88;;
5833;SDS011;2943;48.012;10.968;2023-06-22T14:31:12;21.45;;;6.90;;
5833;SDS011;2943;48.012;10.968;2023-06-22T14:33:40;30.08;;;7.32;;
5833;SDS011;2943;48.012;10.968;2023-06-22T14:36:07;17.23;;;6.00;;
5833;SDS011;2943;48.012;10.968;2023-06-22T14:38:35;24.70;;;8.13;;
5833;SDS011;2943;48.012;10.968;2023-06-22T14:41:02;21.55;;;6.07;;
5833;SDS011;2943;48.012;10.968;2023-06-22T14:43:29;23.60;;;6.63;;
5833;SDS011;2943;48.012;10.968;2023-06-22T14:45:56;17.63;;;6.00;;
5833;SDS011;2943;48.012;10.968;2023-06-22T14:48:22;20.45;;;6.43;;
5833;SDS011;2943;48.012;10.968;2023-06-22T14:50:49;19.85;;;5.68;;